<<    April 2010    >>
Datum    Temp.       Tempmin      Tempmax    Taup.       Taup.min      Taup.max    Feuchte    Feuchtemin    Feuchtemax    Druck    Druckmin    Druckmax    Regen    Wind    Benmax  
  01.04.2010  6,5    3,4    07:41    11,1    13:17  -1,0    -2,6    13:32    3,2    14:49  59,2    41    13:19    72    00:00  1009,4    1002    00:00    1016    21:54  0,0  4,0  24,8  
  02.04.2010  8,3    2,6    06:16    14,4    13:31  -1,0    -2,6    19:04    1,5    21:36  54,4    34    15:50    77    06:20  1013,4    1009    23:59    1017    02:54  0,0  5,3  23,4  
  03.04.2010  10,3    7,3    06:58    14,0    15:56  3,0    1,2    00:04    4,4    15:29  61,4    47    17:26    76    05:51  1008,6    1007    15:39    1010    00:10  0,0  5,3  19,4  
  04.04.2010  9,4    6,3    23:59    12,6    15:37  4,3    2,1    08:04    7,5    15:01  70,4    57    09:13    83    23:59  1009,3    1005    03:09    1018    23:59  2,1  4,6  24,8  
  05.04.2010  9,3    4,4    06:54    14,4    14:03  2,1    -0,6    18:28    4,9    01:50  64,0    38    16:36    88    01:28  1024,4    1018    00:00    1027    23:59  0,0  2,9  15,5  
  06.04.2010  10,9    3,0    06:22    17,4    17:17  0,3    -1,1    15:50    1,9    08:47  51,5    29    15:23    80    07:12  1023,0    1017    22:53    1028    02:09  0,0  3,6  24,8  
  07.04.2010  15,5    9,7    06:55    21,9    16:42  2,0    -0,4    05:48    4,8    16:40  40,5    32    14:02    50    06:55  1017,6    1016    15:53    1019    03:24  0,0  3,3  19,1  
  08.04.2010  12,1    8,5    23:59    14,7    00:00  8,4    4,1    00:00    10,7    10:35  79,0    49    00:00    93    15:33  1024,1    1018    00:00    1030    22:23  0,0  2,9  12,2  
  09.04.2010  10,4    2,9    06:54    16,8    14:28  4,4    1,5    06:32    6,7    11:10  69,1    46    13:58    93    07:35  1031,0    1029    00:00    1033    09:23  0,0  1,8  13,0  
  10.04.2010  10,4    6,3    23:56    14,8    13:00  2,0    -0,8    18:07    5,0    06:22  58,3    39    11:56    82    04:57  1029,9    1027    17:52    1032    07:22  0,0  3,5  19,8  
  11.04.2010  7,3    1,9    06:53    12,5    12:23  0,5    -1,1    06:35    4,2    10:13  63,1    44    12:24    85    07:43  1024,9    1022    17:53    1028    00:00  0,0  3,6  21,2  
  12.04.2010  9,6    4,6    04:01    14,6    13:55  2,3    0,3    01:19    4,7    23:39  61,6    43    13:57    82    07:15  1020,7    1018    17:37    1024    00:00  0,0  4,4  23,0  
  13.04.2010  12,4    6,5    07:29    18,1    15:40  2,7    -0,8    22:47    5,4    11:00  54,3    35    14:37    80    08:22  1017,1    1015    18:08    1019    00:23  0,0  4,7  26,3  
  14.04.2010  10,9    6,1    07:23    16,8    15:23  1,0    -1,6    20:57    4,9    12:15  52,5    32    15:15    78    07:56  1016,4    1015    17:53    1018    11:08  0,0  2,7  17,3  
  15.04.2010  10,9    4,8    05:01    17,0    14:58  0,9    -2,3    21:23    4,2    12:50  52,2    34    16:16    77    07:09  1018,2    1017    00:00    1020    12:22  0,0  2,5  19,8  
  16.04.2010  8,8    4,5    06:32    13,3    16:47  0,1    -3,1    23:47    2,3    06:54  55,8    40    16:52    84    06:41  1022,8    1019    00:22    1025    12:08  0,0  3,8  17,6  
  17.04.2010  8,7    0,1    06:31    17,9    16:59  -1,3    -3,4    00:33    1,3    08:50  53,3    27    17:01    84    07:40  1021,7    1017    23:59    1025    01:22  0,0  1,2  10,1  
  18.04.2010  11,7    2,0    06:34    21,1    16:19  -0,5    -2,9    20:34    2,4    13:16  46,8    23    18:07    74    06:22  1014,1    1011    16:37    1017    00:00  0,0  1,6  12,2  
  19.04.2010  9,9    5,6    06:09    16,0    16:40  2,6    -0,3    00:00    5,3    08:44  62,0    40    17:54    87    07:23  1015,4    1013    00:00    1017    09:22  0,0  2,7  12,2  
  20.04.2010  9,9    2,9    04:50    18,9    13:38  1,1    -3,5    20:39    5,5    11:14  58,3    33    12:45    91    07:42  1015,4    1013    15:21    1018    23:59  0,0  3,8  23,4  
  21.04.2010  7,2    3,0    23:59    12,6    15:41  -1,7    -4,4    20:50    2,9    10:51  55,3    35    15:42    75    06:30  1018,0    1017    00:06    1020    21:51  0,0  2,5  19,1  
  22.04.2010  6,5    -1,2    05:53    13,4    16:55  -2,7    -4,6    04:35    0,0    09:11  54,7    34    16:39    81    07:18  1018,4    1015    17:51    1021    00:51  0,0  1,7  12,6  
  23.04.2010  9,2    0,1    05:50    18,1    17:15  -2,0    -4,0    21:58    1,6    08:54  50,2    25    16:17    81    07:11  1015,9    1015    00:00    1017    00:53  0,0  1,5  11,5  
  24.04.2010  12,2    1,9    06:13    22,1    16:57  -0,6    -3,1    00:04    2,5    13:11  45,7    22    17:04    76    07:45  1019,3    1017    00:00    1021    07:50  0,0  1,5  11,5  
  25.04.2010  16,5    5,5    06:24    27,8    15:45  2,6    -0,3    00:38    7,5    23:35  43,8    20    16:40    72    06:59  1020,2    1018    15:50    1022    07:35  0,0  2,8  27,7  
  26.04.2010  14,1    9,7    06:26    19,1    14:46  8,3    5,6    17:51    10,9    02:33  70,8    43    16:50    94    06:44  1023,4    1021    02:50    1026    22:21  2,7  2,8  21,6  
  27.04.2010  13,3    6,3    06:22    19,6    16:20  6,2    4,5    04:30    9,1    08:55  64,7    41    15:51    92    07:42  1026,5    1025    00:05    1028    09:05  0,0  1,4  13,7  
  28.04.2010  16,1    7,2    05:46    24,5    16:51  5,6    3,0    21:13    7,8    08:45  55,1    29    17:00    88    06:37  1023,3    1018    20:50    1026    00:00  0,0  1,7  19,8  
  29.04.2010  20,6    13,8    06:06    28,5    16:14  6,4    4,4    00:13    10,0    11:47  41,8    23    14:02    60    05:33  1012,5    1005    23:04    1019    00:36  0,0  2,4  12,6  
  30.04.2010  17,0    10,6    23:59    20,3    00:00  6,9    3,0    21:38    10,6    05:49  52,0    42    18:39    71    07:30  1008,7    1004    02:04    1012    21:49  0,0  3,6  20,9  
 
  Gesamt  11,2  -1,2            28,5            2,1  -4,6            10,9            56,7  20            94            1018,8  1002            1033            4,8  3,0  27,7  
 
  Mittelwert  11,2  5,0            17,5            2,1  -0,5            5,1            56,7  35,9            80,2            1018,8  1015,4            1021,8            0,2  3,0  18,4  
  Minimum  6,5  -1,2            11,1            -2,7  -4,6            0,0            40,5  20,0            50,0            1008,6  1002,0            1010,0            0,0  1,2  10,1  
  Maximum  20,6  13,8            28,5            8,4  5,6            10,9            79,0  57,0            94,0            1031,0  1029,0            1033,0            2,7  5,3  27,7  

  Heie Tage    Tmax >=30C     0  
  Sommertage    Tmax >=25C     2  
  Warme Tage    Tmax >=20C     7  
  Kalte Tage    Tmax  <10C     0  
  Frosttage    Tmin  <0C     1  
  Eistage    Tmax  <0C     0  
  Regentage > 0 mm    2  
  Regentage > 2 mm    2  
  Regentage > 10 mm    0  
  Regentage > 20 mm    0